Time;durP1;ratioP1;P1;durP2;ratioP2;P2;SDS_P1;SDS_P2;PMS_P1;PMS_P2;Temp;Humidity;BMP_temperature;BMP_pressure;BME280_temperature;BME280_humidity;BME280_pressure;Samples;Min_cycle;Max_cycle;Signal;HPM_P1;HPM_P2
2024/02/15 00:01:23;;;;;;;59.20;21.90;;;11.70;99.90;;;;;;5031460;28;20044;-75
2024/02/15 00:03:49;;;;;;;56.38;21.42;;;11.70;99.90;;;;;;5030329;28;20100;-76
2024/02/15 00:06:15;;;;;;;66.80;22.10;;;11.70;99.90;;;;;;5031813;28;20037;-76
2024/02/15 00:08:40;;;;;;;62.40;22.42;;;11.80;99.90;;;;;;5030273;28;20072;-76
2024/02/15 00:11:08;;;;;;;56.80;22.88;;;11.70;99.90;;;;;;5030139;28;20045;-76
2024/02/15 00:13:33;;;;;;;61.53;22.08;;;11.40;99.90;;;;;;5014010;28;20050;-76
2024/02/15 00:15:59;;;;;;;58.70;21.65;;;11.30;99.90;;;;;;5015050;28;20041;-76
2024/02/15 00:18:25;;;;;;;56.13;20.42;;;11.70;99.90;;;;;;5013806;28;20490;-76
2024/02/15 00:20:50;;;;;;;62.17;23.13;;;11.70;99.90;;;;;;5013744;28;20041;-76
2024/02/15 00:23:16;;;;;;;54.70;20.30;;;11.70;99.90;;;;;;5030156;28;20041;-75
2024/02/15 00:25:44;;;;;;;55.63;20.85;;;11.40;99.90;;;;;;5030000;28;20045;-76
2024/02/15 00:28:13;;;;;;;67.68;23.13;;;11.40;99.90;;;;;;5013524;28;20080;-76
2024/02/15 00:30:38;;;;;;;53.00;20.52;;;11.60;99.90;;;;;;5013549;28;20505;-76
2024/02/15 00:33:05;;;;;;;61.45;22.70;;;11.50;99.90;;;;;;5030032;28;20045;-75
2024/02/15 00:35:30;;;;;;;49.20;19.67;;;11.30;99.90;;;;;;5013855;28;20041;-76
2024/02/15 00:37:57;;;;;;;54.80;20.52;;;11.30;99.90;;;;;;5031151;28;20045;-76
2024/02/15 00:40:22;;;;;;;58.15;21.33;;;11.60;99.90;;;;;;5030676;28;20033;-75
2024/02/15 00:42:48;;;;;;;53.78;20.88;;;11.80;99.90;;;;;;5013422;28;20581;-75
2024/02/15 00:45:14;;;;;;;53.80;20.67;;;11.70;99.90;;;;;;5014312;28;20131;-76
2024/02/15 00:47:41;;;;;;;54.00;20.25;;;11.50;99.90;;;;;;5017095;28;20076;-76
2024/02/15 00:50:08;;;;;;;56.17;21.05;;;11.50;99.90;;;;;;5016788;28;20041;-76
2024/02/15 00:52:34;;;;;;;54.10;20.75;;;11.60;99.90;;;;;;5034549;28;20045;-76
2024/02/15 00:55:00;;;;;;;48.17;18.40;;;11.40;99.90;;;;;;5034496;28;20044;-76
2024/02/15 00:57:25;;;;;;;58.10;20.50;;;11.30;99.90;;;;;;5033365;28;20403;-75
2024/02/15 00:59:51;;;;;;;64.00;20.83;;;11.60;99.90;;;;;;5032901;28;20080;-76
2024/02/15 01:02:17;;;;;;;52.90;20.10;;;11.30;99.90;;;;;;5016969;28;20514;-75
2024/02/15 01:04:45;;;;;;;54.45;19.27;;;11.40;99.90;;;;;;5000610;28;20045;-76
2024/02/15 01:07:11;;;;;;;50.38;18.52;;;11.40;99.90;;;;;;5016666;28;20116;-74
2024/02/15 01:09:36;;;;;;;58.92;20.50;;;11.40;99.90;;;;;;5033126;28;20076;-75
2024/02/15 01:12:05;;;;;;;45.35;18.77;;;11.70;99.90;;;;;;5033878;28;20036;-75
2024/02/15 01:14:31;;;;;;;55.28;21.15;;;11.40;99.90;;;;;;5032948;28;20044;-75
2024/02/15 01:16:57;;;;;;;52.90;18.40;;;11.40;99.90;;;;;;5016462;28;20100;-75
2024/02/15 01:19:23;;;;;;;48.53;17.73;;;11.60;99.90;;;;;;5032890;28;20033;-75
2024/02/15 01:21:48;;;;;;;44.33;18.25;;;11.60;99.90;;;;;;5033104;28;20045;-76
2024/02/15 01:24:14;;;;;;;41.80;17.35;;;11.60;99.90;;;;;;5032855;28;20497;-75
2024/02/15 01:26:40;;;;;;;51.75;17.95;;;11.50;99.90;;;;;;5032977;28;20110;-75
2024/02/15 01:29:05;;;;;;;36.95;17.25;;;11.70;99.90;;;;;;5033816;28;20457;-75
2024/02/15 01:31:31;;;;;;;43.75;17.30;;;11.80;99.90;;;;;;5033906;28;20501;-75
2024/02/15 01:33:57;;;;;;;40.70;17.10;;;11.40;99.90;;;;;;5033006;28;20033;-75
2024/02/15 01:36:22;;;;;;;41.00;16.33;;;11.50;99.90;;;;;;5032551;28;20509;-75
2024/02/15 01:38:48;;;;;;;44.42;17.05;;;11.50;99.90;;;;;;5032448;28;20033;-75
2024/02/15 01:41:14;;;;;;;45.05;18.30;;;11.50;99.90;;;;;;5033749;28;20056;-75
2024/02/15 01:43:44;;;;;;;38.47;18.25;;;11.80;99.90;;;;;;5032379;28;20370;-75
2024/02/15 01:46:10;;;;;;;38.55;15.57;;;11.60;99.90;;;;;;5032379;28;20045;-76
2024/02/15 01:48:39;;;;;;;38.58;15.05;;;11.80;99.90;;;;;;5032437;28;20551;-75
2024/02/15 01:51:07;;;;;;;36.90;16.33;;;11.60;99.90;;;;;;5033441;28;20441;-75
2024/02/15 01:53:33;;;;;;;43.70;16.20;;;11.80;99.90;;;;;;5032407;28;20042;-76
2024/02/15 01:55:59;;;;;;;33.28;14.82;;;11.40;99.90;;;;;;5033451;28;20502;-75
2024/02/15 01:58:32;;;;;;;32.38;15.23;;;11.40;99.90;;;;;;5031260;28;20047;-75
2024/02/15 02:00:59;;;;;;;37.72;14.60;;;11.50;99.90;;;;;;5033236;28;20115;-75
2024/02/15 02:03:25;;;;;;;32.40;14.07;;;11.60;99.90;;;;;;5032013;28;20132;-75
2024/02/15 02:05:50;;;;;;;34.85;15.02;;;11.50;99.90;;;;;;5031910;28;20124;-75
2024/02/15 02:08:16;;;;;;;34.70;15.25;;;11.50;99.90;;;;;;5033276;28;20076;-75
2024/02/15 02:10:42;;;;;;;29.92;13.73;;;11.40;99.90;;;;;;5031662;28;20450;-75
2024/02/15 02:13:09;;;;;;;31.63;14.07;;;11.50;99.90;;;;;;5031798;28;20040;-75
2024/02/15 02:15:37;;;;;;;36.38;13.07;;;11.70;99.90;;;;;;5031805;28;20034;-75
2024/02/15 02:18:06;;;;;;;29.63;12.82;;;11.40;99.90;;;;;;5031733;28;20113;-75
2024/02/15 02:20:32;;;;;;;37.78;12.80;;;11.80;99.90;;;;;;5033043;28;20394;-75
2024/02/15 02:23:14;;;;;;;30.95;12.10;;;11.70;99.90;;;;;;5031993;28;20091;-75
2024/02/15 02:25:42;;;;;;;34.50;13.40;;;11.80;99.90;;;;;;5015194;28;20045;-74
2024/02/15 02:28:08;;;;;;;29.52;11.80;;;11.40;99.90;;;;;;5031755;28;20429;-75
2024/02/15 02:30:34;;;;;;;29.23;12.07;;;11.60;99.90;;;;;;5032590;28;20045;-75
2024/02/15 02:33:01;;;;;;;30.40;12.68;;;11.60;99.90;;;;;;5014846;28;20037;-75
2024/02/15 02:35:30;;;;;;;29.73;12.30;;;11.40;99.90;;;;;;5015312;28;20405;-75
2024/02/15 02:37:56;;;;;;;25.85;10.80;;;11.70;99.90;;;;;;5015103;28;20042;-76
2024/02/15 02:40:22;;;;;;;24.77;10.82;;;11.40;99.90;;;;;;5032615;28;20493;-75
2024/02/15 02:42:56;;;;;;;23.17;10.25;;;11.80;99.90;;;;;;5014867;28;20103;-75
2024/02/15 02:45:22;;;;;;;23.33;9.20;;;11.70;99.90;;;;;;5032577;28;20079;-75
2024/02/15 02:47:54;;;;;;;23.13;9.88;;;11.40;99.90;;;;;;5015038;28;20045;-75
2024/02/15 02:50:24;;;;;;;19.80;9.80;;;11.70;99.90;;;;;;4997999;28;20072;-75
2024/02/15 02:52:50;;;;;;;25.70;9.40;;;11.50;99.90;;;;;;5014620;28;20048;-75
2024/02/15 02:55:16;;;;;;;21.67;9.93;;;11.50;99.90;;;;;;5032416;28;20033;-75
2024/02/15 02:57:42;;;;;;;26.70;10.05;;;11.80;99.90;;;;;;5014429;28;20041;-75
2024/02/15 03:00:16;;;;;;;25.80;10.27;;;11.40;99.90;;;;;;5030795;28;20099;-75
2024/02/15 03:02:43;;;;;;;25.17;10.43;;;11.40;99.90;;;;;;4998498;28;20107;-75
2024/02/15 03:05:11;;;;;;;20.80;9.93;;;11.40;99.90;;;;;;5014527;28;20052;-75
2024/02/15 03:07:37;;;;;;;20.00;10.32;;;11.80;99.90;;;;;;5014330;28;20041;-74
2024/02/15 03:10:04;;;;;;;27.02;9.55;;;11.60;99.90;;;;;;5030663;28;20045;-75
2024/02/15 03:12:30;;;;;;;21.85;9.35;;;11.60;99.90;;;;;;5031846;28;20049;-75
2024/02/15 03:14:56;;;;;;;22.40;10.10;;;11.90;99.90;;;;;;5014212;28;20072;-75
2024/02/15 03:17:23;;;;;;;22.40;10.32;;;11.50;99.90;;;;;;5014329;28;20034;-75
2024/02/15 03:19:49;;;;;;;27.90;10.23;;;11.90;99.90;;;;;;5030345;28;20129;-75
2024/02/15 03:22:15;;;;;;;20.75;9.45;;;11.70;99.90;;;;;;5032387;28;20077;-74
2024/02/15 03:24:41;;;;;;;30.95;10.20;;;11.80;99.90;;;;;;5014366;28;20038;-75
2024/02/15 03:27:07;;;;;;;20.80;9.73;;;11.90;99.90;;;;;;5030821;28;20037;-75
2024/02/15 03:29:35;;;;;;;23.95;10.65;;;11.80;99.90;;;;;;5014280;28;20053;-75
2024/02/15 03:32:03;;;;;;;29.70;9.43;;;11.80;99.90;;;;;;5030382;28;20112;-74
2024/02/15 03:34:31;;;;;;;21.80;8.88;;;11.50;99.90;;;;;;5014469;28;20088;-77
2024/02/15 03:36:57;;;;;;;22.02;8.95;;;11.60;99.90;;;;;;5031937;28;20041;-77
2024/02/15 03:39:23;;;;;;;24.45;8.82;;;11.90;99.90;;;;;;5013782;28;20107;-75
2024/02/15 03:41:50;;;;;;;25.10;8.98;;;11.50;99.90;;;;;;4997400;28;20134;-74
2024/02/15 03:44:18;;;;;;;23.88;8.35;;;11.70;99.90;;;;;;5014047;28;20048;-75
2024/02/15 03:46:50;;;;;;;21.52;8.52;;;11.50;99.90;;;;;;5013928;28;20052;-75
2024/02/15 03:49:16;;;;;;;26.47;8.37;;;11.70;99.90;;;;;;5014109;28;20045;-75
2024/02/15 03:51:43;;;;;;;27.02;8.57;;;11.90;99.90;;;;;;5031455;28;20656;-75
2024/02/15 03:54:09;;;;;;;22.52;8.10;;;11.90;99.90;;;;;;5031552;28;20109;-75
2024/02/15 03:56:36;;;;;;;23.38;7.72;;;11.70;99.90;;;;;;5013840;28;20049;-75
2024/02/15 03:59:04;;;;;;;29.02;9.27;;;11.50;99.90;;;;;;5013577;28;20073;-75
2024/02/15 04:01:33;;;;;;;31.88;8.77;;;11.70;99.90;;;;;;5031349;28;20068;-74
2024/02/15 04:03:59;;;;;;;23.90;8.15;;;11.80;99.90;;;;;;5014076;28;20434;-74
2024/02/15 04:06:28;;;;;;;23.38;7.80;;;11.70;99.90;;;;;;5013692;28;20048;-75
2024/02/15 04:08:54;;;;;;;19.73;8.98;;;11.50;99.90;;;;;;5013489;28;20103;-75
2024/02/15 04:11:20;;;;;;;32.63;9.70;;;11.60;99.90;;;;;;5013444;28;20041;-74
2024/02/15 04:13:45;;;;;;;25.48;9.38;;;12.00;99.90;;;;;;5013710;28;20041;-74
2024/02/15 04:16:11;;;;;;;32.13;11.60;;;11.70;99.90;;;;;;4997639;28;20444;-75
2024/02/15 04:18:37;;;;;;;27.77;11.52;;;12.00;99.90;;;;;;5030149;28;20038;-75
2024/02/15 04:21:07;;;;;;;29.20;10.90;;;11.80;99.90;;;;;;5031932;28;20045;-74
2024/02/15 04:23:32;;;;;;;31.20;12.05;;;11.80;99.90;;;;;;5035597;28;20064;-74
2024/02/15 04:25:59;;;;;;;33.90;11.38;;;11.90;99.90;;;;;;5033930;28;20041;-74
2024/02/15 04:30:51;;;;;;;30.20;11.60;;;11.60;99.90;;;;;;5096897;22;20071;-78
2024/02/15 04:33:17;;;;;;;29.88;12.32;;;11.80;99.90;;;;;;5075067;28;20496;-77
2024/02/15 04:35:43;;;;;;;27.90;11.20;;;11.70;99.90;;;;;;5057115;28;20029;-77
2024/02/15 04:38:09;;;;;;;28.17;11.95;;;11.80;99.90;;;;;;5074572;28;20445;-76
2024/02/15 04:40:37;;;;;;;31.20;13.15;;;11.90;99.90;;;;;;5070672;28;20427;-77
2024/02/15 04:43:04;;;;;;;28.02;14.65;;;12.00;99.90;;;;;;5074346;28;20048;-76
2024/02/15 04:45:30;;;;;;;30.00;15.82;;;11.90;99.90;;;;;;5073438;28;20205;-76
2024/02/15 04:47:57;;;;;;;37.47;16.23;;;11.80;99.90;;;;;;5074710;28;20045;-77
2024/02/15 04:50:22;;;;;;;35.85;16.38;;;11.80;99.90;;;;;;5073041;28;20582;-76
2024/02/15 04:52:49;;;;;;;36.17;17.95;;;11.70;99.90;;;;;;5073220;28;20139;-76
2024/02/15 04:55:16;;;;;;;36.20;17.98;;;11.90;99.90;;;;;;5074360;28;20488;-76
2024/02/15 04:57:41;;;;;;;32.90;17.40;;;11.80;99.90;;;;;;5073070;28;20044;-76
2024/02/15 05:00:10;;;;;;;40.03;18.95;;;11.70;99.90;;;;;;5073951;28;20036;-76
2024/02/15 05:02:40;;;;;;;39.35;18.42;;;12.10;99.90;;;;;;5056696;28;20083;-76
2024/02/15 05:05:09;;;;;;;44.05;19.60;;;11.80;99.90;;;;;;5072992;28;20078;-76
2024/02/15 05:07:37;;;;;;;36.80;18.55;;;11.80;99.90;;;;;;5072988;28;20101;-77
2024/02/15 05:10:06;;;;;;;39.97;18.58;;;11.90;99.90;;;;;;5072658;28;20055;-76
2024/02/15 05:12:33;;;;;;;35.25;18.33;;;11.90;99.90;;;;;;5072843;28;20095;-76
2024/02/15 05:14:59;;;;;;;38.92;19.02;;;11.80;99.90;;;;;;5073070;28;20055;-76
2024/02/15 05:17:24;;;;;;;42.55;18.88;;;11.70;99.90;;;;;;5072801;28;20044;-77
2024/02/15 05:19:50;;;;;;;37.67;18.92;;;12.20;99.90;;;;;;5056048;28;20040;-78
2024/02/15 05:22:16;;;;;;;39.53;19.05;;;12.20;99.90;;;;;;5072736;28;20032;-75
2024/02/15 05:24:42;;;;;;;44.65;21.15;;;11.90;99.90;;;;;;5073948;28;20036;-75
2024/02/15 05:27:07;;;;;;;34.67;18.63;;;12.20;99.90;;;;;;5073790;28;20124;-75
2024/02/15 05:29:34;;;;;;;35.67;19.92;;;11.80;99.90;;;;;;5073562;28;20048;-75
2024/02/15 05:32:01;;;;;;;41.15;20.90;;;12.20;99.90;;;;;;5072194;28;20048;-75
2024/02/15 05:34:26;;;;;;;36.10;18.45;;;11.80;99.90;;;;;;5072522;28;20119;-76
2024/02/15 05:36:52;;;;;;;35.83;18.98;;;12.10;99.90;;;;;;5072661;28;20560;-76
2024/02/15 05:39:21;;;;;;;36.25;19.02;;;11.90;99.90;;;;;;5072471;28;20566;-76
2024/02/15 05:41:47;;;;;;;33.55;18.50;;;11.80;99.90;;;;;;5055490;28;20045;-77
2024/02/15 05:44:18;;;;;;;38.08;18.33;;;11.80;99.90;;;;;;5072561;28;20036;-77
2024/02/15 05:46:44;;;;;;;39.40;20.88;;;11.80;99.90;;;;;;5072280;28;20052;-76
2024/02/15 05:49:15;;;;;;;42.08;21.33;;;11.90;99.90;;;;;;5073365;28;20052;-76
2024/02/15 05:51:41;;;;;;;50.08;21.70;;;11.90;99.90;;;;;;5073259;28;20044;-76
2024/02/15 05:54:07;;;;;;;43.53;21.10;;;12.00;99.90;;;;;;5072045;28;20045;-78
2024/02/15 05:56:32;;;;;;;39.63;21.60;;;11.80;99.90;;;;;;5071958;28;20089;-76
2024/02/15 05:58:58;;;;;;;44.75;20.77;;;12.10;99.90;;;;;;5072129;28;20582;-76
2024/02/15 06:01:24;;;;;;;48.92;21.60;;;11.80;99.90;;;;;;5073113;28;20446;-76
2024/02/15 06:03:50;;;;;;;44.28;21.73;;;11.80;99.90;;;;;;5073130;28;20203;-76
2024/02/15 06:06:16;;;;;;;39.38;21.55;;;11.80;99.90;;;;;;5073120;28;20052;-76
2024/02/15 06:08:41;;;;;;;42.78;22.52;;;11.80;99.90;;;;;;5071834;28;20560;-76
2024/02/15 06:11:09;;;;;;;46.45;22.17;;;12.30;99.90;;;;;;5071469;28;20154;-78
2024/02/15 06:13:35;;;;;;;42.00;23.52;;;11.90;99.90;;;;;;5072050;28;20048;-77
2024/02/15 06:16:00;;;;;;;51.20;21.65;;;12.30;99.90;;;;;;5071622;28;20037;-77
2024/02/15 06:18:29;;;;;;;51.00;22.33;;;12.30;99.90;;;;;;5071640;28;20037;-77
2024/02/15 06:20:59;;;;;;;54.70;26.48;;;12.20;99.90;;;;;;5071382;28;20036;-77
2024/02/15 06:23:26;;;;;;;45.55;24.13;;;12.30;99.90;;;;;;5055394;28;20033;-77
2024/02/15 06:25:53;;;;;;;49.83;24.98;;;12.10;99.90;;;;;;5071574;28;20075;-77
2024/02/15 06:42:02;;;;;;;45.85;23.98;;;12.40;99.90;;;;;;5072458;28;20044;-76
2024/02/15 06:44:28;;;;;;;50.38;24.48;;;12.30;99.90;;;;;;5070549;28;20456;-77
2024/02/15 06:46:53;;;;;;;46.83;23.80;;;12.40;99.90;;;;;;5071052;28;20048;-77
2024/02/15 06:49:19;;;;;;;44.47;23.83;;;12.00;99.90;;;;;;5070782;28;20109;-76
2024/02/15 06:51:48;;;;;;;51.25;25.30;;;12.00;99.90;;;;;;5072115;28;20044;-76
2024/02/15 06:54:13;;;;;;;53.22;24.80;;;12.20;99.90;;;;;;5070972;28;20132;-76
2024/02/15 06:56:39;;;;;;;47.40;24.48;;;12.40;99.90;;;;;;5071996;28;20068;-76
2024/02/15 06:59:05;;;;;;;46.85;24.23;;;12.20;99.90;;;;;;5071025;28;20040;-76
2024/02/15 07:01:33;;;;;;;48.30;23.83;;;12.10;99.90;;;;;;5070957;28;20408;-76
2024/02/15 07:04:00;;;;;;;45.88;24.75;;;12.00;99.90;;;;;;5070835;28;20040;-76
2024/02/15 07:06:27;;;;;;;44.75;24.00;;;12.20;99.90;;;;;;5071925;28;20059;-76
2024/02/15 07:08:55;;;;;;;44.47;23.77;;;12.40;99.90;;;;;;5070695;28;20135;-77
2024/02/15 07:11:21;;;;;;;45.03;23.83;;;12.00;99.90;;;;;;5053629;28;20072;-76
2024/02/15 07:13:47;;;;;;;45.35;23.02;;;12.00;99.90;;;;;;5070822;28;20052;-76
2024/02/15 07:16:15;;;;;;;47.15;24.98;;;12.00;99.90;;;;;;5070804;28;20043;-76
2024/02/15 07:18:41;;;;;;;45.30;22.50;;;12.40;99.90;;;;;;5053695;28;20488;-76
2024/02/15 07:21:11;;;;;;;48.72;24.98;;;12.50;99.90;;;;;;5070283;28;20088;-77
2024/02/15 07:23:36;;;;;;;42.47;23.67;;;12.00;99.90;;;;;;5071651;28;20054;-77
2024/02/15 07:26:03;;;;;;;41.65;24.23;;;12.10;99.90;;;;;;5071908;28;20081;-78
2024/02/15 07:28:30;;;;;;;38.42;22.38;;;12.40;99.90;;;;;;5070276;28;20037;-76
2024/02/15 07:30:56;;;;;;;42.72;22.08;;;12.10;99.90;;;;;;5070204;28;20078;-76
2024/02/15 07:33:23;;;;;;;45.10;22.70;;;12.50;99.90;;;;;;5071725;28;20041;-76
2024/02/15 07:35:53;;;;;;;40.90;22.95;;;12.50;99.90;;;;;;5071589;28;20095;-76
2024/02/15 07:38:19;;;;;;;40.35;22.27;;;12.50;99.90;;;;;;5070258;28;20042;-77
2024/02/15 07:40:45;;;;;;;37.63;20.98;;;12.50;99.90;;;;;;5070056;28;20040;-76
2024/02/15 07:43:10;;;;;;;39.80;22.67;;;12.40;99.90;;;;;;5071641;28;20097;-78
2024/02/15 07:45:37;;;;;;;39.33;20.88;;;12.50;99.90;;;;;;5071620;28;20492;-76
2024/02/15 07:48:05;;;;;;;38.08;22.27;;;12.50;99.90;;;;;;5071579;28;20048;-76
2024/02/15 07:50:31;;;;;;;38.78;21.20;;;12.50;99.90;;;;;;5071246;28;20083;-76
2024/02/15 07:52:57;;;;;;;51.10;22.98;;;12.40;99.90;;;;;;5070066;28;20068;-77
2024/02/15 07:55:24;;;;;;;41.60;21.58;;;12.50;99.90;;;;;;5054413;28;20418;-76
2024/02/15 07:57:53;;;;;;;38.50;21.50;;;12.20;99.90;;;;;;5074403;28;20047;-76
2024/02/15 08:00:19;;;;;;;39.72;21.20;;;12.60;99.90;;;;;;5075386;28;20043;-76
2024/02/15 08:02:45;;;;;;;36.42;20.00;;;12.50;99.90;;;;;;5075575;28;20051;-77
2024/02/15 08:05:12;;;;;;;41.75;20.98;;;12.30;99.90;;;;;;5073994;28;20040;-78
2024/02/15 08:07:41;;;;;;;35.15;19.38;;;12.40;99.90;;;;;;5074293;28;20088;-77
2024/02/15 08:10:12;;;;;;;38.28;20.85;;;12.30;99.90;;;;;;5075274;28;20129;-77
2024/02/15 08:12:39;;;;;;;40.50;22.95;;;12.30;99.90;;;;;;5075389;28;20040;-77
2024/02/15 08:15:05;;;;;;;38.55;20.55;;;12.50;99.90;;;;;;5073916;28;20182;-76
2024/02/15 08:17:30;;;;;;;36.17;20.08;;;12.50;99.90;;;;;;5075260;28;20119;-76
2024/02/15 08:19:56;;;;;;;39.45;20.63;;;12.20;99.90;;;;;;5073469;28;20040;-76
2024/02/15 08:22:23;;;;;;;42.55;20.77;;;12.50;99.90;;;;;;5057243;28;20036;-77
2024/02/15 08:24:52;;;;;;;40.97;21.05;;;12.60;99.90;;;;;;5057359;28;20561;-76
2024/02/15 08:27:18;;;;;;;35.33;18.30;;;12.20;99.90;;;;;;5057293;28;20044;-76
2024/02/15 08:29:43;;;;;;;32.78;18.58;;;12.50;99.90;;;;;;5073434;28;20041;-77
2024/02/15 08:32:10;;;;;;;36.47;18.70;;;12.20;99.90;;;;;;5073657;28;20032;-76
2024/02/15 08:34:35;;;;;;;37.80;18.38;;;12.50;99.90;;;;;;5073410;28;20081;-77
2024/02/15 08:37:02;;;;;;;31.08;17.45;;;12.20;99.90;;;;;;5073525;28;20032;-76
2024/02/15 08:39:28;;;;;;;32.28;18.25;;;12.30;99.90;;;;;;5074686;28;20091;-76
2024/02/15 08:41:54;;;;;;;31.50;18.60;;;12.50;99.90;;;;;;5073160;28;20504;-77
2024/02/15 08:44:21;;;;;;;34.95;17.77;;;12.20;99.90;;;;;;5074682;28;20048;-76
2024/02/15 08:46:47;;;;;;;28.77;16.23;;;12.50;99.90;;;;;;5074625;28;20075;-76
2024/02/15 08:49:13;;;;;;;32.08;17.70;;;12.20;99.90;;;;;;5056675;28;20036;-76
2024/02/15 08:51:39;;;;;;;34.92;17.52;;;12.30;99.90;;;;;;5073002;28;20488;-76
2024/02/15 08:54:05;;;;;;;27.85;16.65;;;12.50;99.90;;;;;;5074642;28;20049;-76
2024/02/15 08:56:30;;;;;;;28.42;16.27;;;12.30;99.90;;;;;;5074480;28;20033;-76
2024/02/15 08:58:57;;;;;;;50.40;19.98;;;12.20;99.90;;;;;;5072941;28;20036;-76
2024/02/15 09:01:23;;;;;;;31.73;16.15;;;12.40;99.90;;;;;;5072888;28;20037;-76
2024/02/15 09:03:49;;;;;;;29.25;15.43;;;12.20;99.90;;;;;;5074265;28;20099;-76
2024/02/15 09:06:15;;;;;;;31.77;16.65;;;12.60;99.90;;;;;;5072442;28;20503;-76
2024/02/15 09:08:40;;;;;;;26.67;16.45;;;12.20;99.90;;;;;;5074126;28;20048;-76
2024/02/15 09:11:06;;;;;;;27.25;14.88;;;12.30;99.90;;;;;;5055870;28;20397;-75
2024/02/15 09:13:37;;;;;;;30.00;16.40;;;12.30;99.90;;;;;;5074066;28;20040;-76
2024/02/15 09:16:03;;;;;;;26.10;16.63;;;12.50;99.90;;;;;;5055961;28;20045;-76
2024/02/15 09:18:28;;;;;;;29.90;17.13;;;12.60;99.90;;;;;;5072546;28;20051;-75
2024/02/15 09:20:55;;;;;;;37.70;16.42;;;12.70;99.90;;;;;;5073659;28;20032;-77
2024/02/15 09:23:23;;;;;;;22.90;14.73;;;12.60;99.90;;;;;;5071927;28;20051;-76
2024/02/15 09:25:51;;;;;;;26.85;14.73;;;12.30;99.90;;;;;;5055434;28;20415;-76
2024/02/15 09:28:21;;;;;;;24.88;14.15;;;12.60;99.90;;;;;;5073610;28;20086;-75
2024/02/15 09:30:48;;;;;;;23.50;14.60;;;12.40;99.90;;;;;;5072796;28;20420;-76
2024/02/15 09:33:14;;;;;;;28.80;15.13;;;12.30;99.90;;;;;;5052341;28;20041;-76
2024/02/15 09:35:39;;;;;;;25.10;14.43;;;12.40;99.90;;;;;;5052480;28;20463;-76
2024/02/15 09:38:06;;;;;;;28.25;15.70;;;12.60;99.90;;;;;;5063168;28;20029;-76
2024/02/15 09:40:31;;;;;;;29.67;15.57;;;12.70;99.90;;;;;;5072021;28;20037;-76
2024/02/15 09:42:59;;;;;;;23.63;14.27;;;12.30;99.90;;;;;;5072041;28;20056;-76
2024/02/15 09:45:25;;;;;;;28.85;15.70;;;12.70;99.90;;;;;;5055732;28;20036;-76
2024/02/15 09:47:52;;;;;;;25.20;15.27;;;12.80;99.90;;;;;;5073605;28;20053;-76
2024/02/15 09:50:18;;;;;;;28.85;15.23;;;12.40;99.90;;;;;;5073427;28;20040;-76
2024/02/15 09:52:46;;;;;;;45.53;18.23;;;12.80;99.90;;;;;;5072088;28;20047;-76
2024/02/15 09:55:15;;;;;;;29.33;15.65;;;12.90;99.90;;;;;;5073406;28;20036;-76
2024/02/15 09:57:48;;;;;;;27.75;15.57;;;13.00;99.90;;;;;;5071927;28;20036;-76
2024/02/15 10:00:15;;;;;;;29.00;15.15;;;12.80;99.90;;;;;;5073634;28;20129;-76
2024/02/15 10:02:44;;;;;;;25.92;15.52;;;13.00;99.90;;;;;;5072179;28;20040;-76
2024/02/15 10:05:13;;;;;;;30.52;16.40;;;12.60;99.90;;;;;;5073282;28;20048;-76
2024/02/15 10:07:46;;;;;;;22.92;15.07;;;12.70;99.90;;;;;;5071797;28;20052;-78
2024/02/15 10:10:19;;;;;;;25.65;14.50;;;12.60;99.90;;;;;;5072035;28;20036;-76
2024/02/15 10:12:48;;;;;;;;;;;12.80;99.90;;;;;;5067701;28;20048;-78
2024/02/15 10:15:34;;;;;;;27.60;14.80;;;12.60;99.90;;;;;;5072853;28;19920;-77
2024/02/15 10:18:07;;;;;;;25.98;15.57;;;13.10;99.90;;;;;;5070748;28;20088;-76
2024/02/15 10:20:34;;;;;;;24.40;13.20;;;13.10;99.90;;;;;;5071406;28;20051;-76
2024/02/15 10:22:59;;;;;;;22.58;14.25;;;12.70;99.90;;;;;;5054975;28;20060;-76
2024/02/15 10:25:29;;;;;;;19.42;12.85;;;12.80;99.90;;;;;;5070249;28;20044;-76
2024/02/15 10:28:09;;;;;;;24.27;12.98;;;13.10;99.90;;;;;;5068969;28;20091;-76
2024/02/15 10:30:39;;;;;;;23.80;12.93;;;13.10;99.90;;;;;;5071499;28;20101;-76
2024/02/15 10:33:07;;;;;;;21.95;12.27;;;12.80;99.90;;;;;;5071941;28;20492;-78
2024/02/15 10:35:36;;;;;;;19.10;11.40;;;13.00;99.90;;;;;;5071275;28;20037;-76
2024/02/15 10:38:09;;;;;;;20.42;11.15;;;13.30;99.90;;;;;;5070533;28;20116;-77
2024/02/15 10:40:36;;;;;;;16.27;10.73;;;13.40;99.90;;;;;;5071665;28;20648;-76
2024/02/15 10:43:05;;;;;;;19.15;11.38;;;13.00;99.90;;;;;;5070469;28;20499;-77
2024/02/15 10:45:32;;;;;;;16.15;11.32;;;13.20;99.90;;;;;;5072130;28;20051;-77
2024/02/15 10:47:58;;;;;;;14.27;9.88;;;13.00;99.90;;;;;;5054238;28;20044;-76
2024/02/15 10:50:24;;;;;;;18.45;10.20;;;13.10;99.90;;;;;;5069982;28;20079;-77
2024/02/15 10:52:59;;;;;;;16.83;10.02;;;13.20;99.90;;;;;;5070813;28;20040;-77
2024/02/15 10:55:32;;;;;;;14.65;10.25;;;13.50;99.90;;;;;;5071027;28;20334;-76
2024/02/15 10:58:04;;;;;;;15.00;9.93;;;13.40;99.90;;;;;;5070309;28;20052;-76
2024/02/15 11:00:32;;;;;;;15.90;9.68;;;13.10;99.90;;;;;;5053534;28;20041;-76
2024/02/15 11:03:04;;;;;;;13.45;9.73;;;13.10;99.90;;;;;;5070670;28;20041;-77
2024/02/15 11:05:34;;;;;;;16.55;10.18;;;13.40;99.90;;;;;;5070743;28;20539;-76
2024/02/15 11:08:09;;;;;;;12.60;9.05;;;13.30;99.90;;;;;;5071860;28;20040;-76
2024/02/15 11:10:36;;;;;;;13.07;9.00;;;13.50;99.90;;;;;;5070146;28;20048;-77
2024/02/15 11:13:02;;;;;;;13.07;8.90;;;13.50;99.90;;;;;;5054164;28;20105;-78
2024/02/15 11:15:53;;;;;;;13.90;7.93;;;13.50;99.90;;;;;;5072013;28;20039;-78
2024/02/15 11:18:42;;;;;;;12.85;8.32;;;13.10;99.90;;;;;;5071215;28;20032;-77
2024/02/15 11:21:07;;;;;;;10.55;7.85;;;13.10;99.90;;;;;;5071484;28;20482;-77
2024/02/15 11:23:33;;;;;;;11.95;7.93;;;13.60;99.90;;;;;;5071997;28;20072;-76
2024/02/15 11:26:00;;;;;;;13.00;7.90;;;13.50;99.90;;;;;;5071864;28;20036;-77
2024/02/15 11:28:27;;;;;;;10.75;7.10;;;13.50;99.90;;;;;;5071783;28;20044;-77
2024/02/15 11:30:56;;;;;;;8.10;7.13;;;13.30;99.90;;;;;;5069804;28;20082;-77
2024/02/15 11:33:29;;;;;;;9.90;7.20;;;13.20;99.90;;;;;;5070068;28;20079;-78
2024/02/15 11:36:09;;;;;;;9.65;6.93;;;13.40;99.90;;;;;;5071401;28;20102;-77
2024/02/15 11:38:36;;;;;;;10.05;6.38;;;13.60;99.90;;;;;;5071737;28;20116;-77
2024/02/15 11:41:02;;;;;;;9.60;6.45;;;13.20;99.90;;;;;;5069583;28;20035;-76
2024/02/15 11:43:44;;;;;;;10.55;6.60;;;13.50;99.90;;;;;;5070755;28;20111;-77
2024/02/15 11:46:13;;;;;;;7.95;6.10;;;13.70;99.90;;;;;;5065763;28;20120;-76
2024/02/15 11:48:39;;;;;;;8.77;6.50;;;13.20;99.90;;;;;;5067273;28;20115;-79
2024/02/15 11:51:06;;;;;;;10.57;6.07;;;13.40;99.90;;;;;;5051078;28;20071;-78
2024/02/15 11:53:32;;;;;;;8.18;5.30;;;13.50;99.90;;;;;;5051838;28;20043;-77
2024/02/15 11:56:02;;;;;;;8.52;5.07;;;13.40;99.90;;;;;;5069473;28;20036;-76
2024/02/15 11:59:02;;;;;;;7.38;4.57;;;13.20;99.90;;;;;;5069403;28;20037;-77
2024/02/15 12:20:31;;;;;;;5.47;3.00;;;13.40;99.90;;;;;;5071110;28;20040;-76
2024/02/15 12:22:58;;;;;;;4.57;3.00;;;13.30;99.90;;;;;;5069890;28;20602;-77
2024/02/15 12:25:24;;;;;;;3.67;2.75;;;13.30;99.90;;;;;;5071152;28;20044;-76
2024/02/15 12:27:55;;;;;;;3.40;2.75;;;13.70;99.90;;;;;;5070886;28;20047;-77
2024/02/15 12:30:21;;;;;;;3.20;2.60;;;13.30;99.90;;;;;;5069533;28;20581;-76
2024/02/15 12:32:50;;;;;;;4.30;2.92;;;13.70;99.90;;;;;;5069743;28;20033;-76
2024/02/15 12:35:22;;;;;;;3.10;2.40;;;13.20;99.90;;;;;;5071234;28;20037;-77
2024/02/15 12:38:08;;;;;;;2.83;2.10;;;13.30;99.90;;;;;;5071101;28;20525;-76
2024/02/15 12:40:36;;;;;;;3.63;2.55;;;13.70;99.90;;;;;;5069184;28;20048;-76
2024/02/15 12:43:05;;;;;;;3.65;2.30;;;13.60;99.90;;;;;;5073125;28;20047;-77
2024/02/15 12:45:32;;;;;;;5.25;2.92;;;13.30;99.90;;;;;;5074903;28;20043;-77
2024/02/15 12:47:58;;;;;;;3.92;2.67;;;13.60;99.90;;;;;;5073372;28;20036;-76
2024/02/15 12:50:27;;;;;;;4.22;3.17;;;13.20;99.90;;;;;;5074405;28;20116;-76
2024/02/15 12:52:55;;;;;;;3.95;2.83;;;13.70;99.90;;;;;;5073211;28;20040;-76
2024/02/15 12:55:25;;;;;;;5.50;3.55;;;13.20;99.90;;;;;;5074493;28;20567;-76
2024/02/15 12:57:53;;;;;;;6.70;3.85;;;13.50;99.90;;;;;;5074315;28;20515;-77
2024/02/15 13:00:28;;;;;;;7.43;4.68;;;13.30;99.90;;;;;;5072872;28;20045;-77
2024/02/15 13:02:55;;;;;;;6.85;5.03;;;13.40;99.90;;;;;;5065048;28;20446;-77
2024/02/15 13:05:23;;;;;;;5.97;4.60;;;13.30;99.90;;;;;;5048379;28;20508;-76
2024/02/15 13:07:52;;;;;;;5.97;4.78;;;13.20;99.90;;;;;;5066596;28;20032;-76